createdAt,value
2023-02-23T00:00:28.637Z,20.17
2023-02-23T00:03:18.260Z,17.13
2023-02-23T00:06:06.905Z,19.70
2023-02-23T00:08:55.234Z,20.75
2023-02-23T00:11:43.431Z,18.08
2023-02-23T00:14:31.949Z,19.33
2023-02-23T00:17:20.265Z,23.27
2023-02-23T00:20:12.457Z,17.60
2023-02-23T00:23:00.707Z,19.90
2023-02-23T00:25:48.942Z,17.95
2023-02-23T00:28:37.916Z,17.42
2023-02-23T00:31:27.591Z,22.33
2023-02-23T00:34:20.946Z,15.98
2023-02-23T00:37:12.336Z,21.35
2023-02-23T00:40:00.583Z,18.58
2023-02-23T00:42:49.886Z,18.25
2023-02-23T00:45:38.348Z,18.42
2023-02-23T00:48:28.753Z,25.90
2023-02-23T00:51:18.325Z,18.45
2023-02-23T00:54:09.360Z,18.58
2023-02-23T00:56:57.576Z,17.70
2023-02-23T00:59:45.799Z,14.00
2023-02-23T01:02:34.053Z,18.90
2023-02-23T01:05:22.278Z,20.05
2023-02-23T01:08:10.873Z,17.45
2023-02-23T01:11:00.853Z,19.77
2023-02-23T01:13:50.315Z,25.88
2023-02-23T01:16:39.028Z,19.88
2023-02-23T01:19:28.569Z,20.30
2023-02-23T01:22:16.837Z,22.92
2023-02-23T01:25:05.579Z,17.42
2023-02-23T01:27:55.299Z,24.27
2023-02-23T01:30:43.967Z,21.20
2023-02-23T01:33:32.268Z,18.92
2023-02-23T01:36:20.449Z,20.80
2023-02-23T01:39:12.270Z,23.15
2023-02-23T01:42:00.512Z,29.42
2023-02-23T01:45:22.332Z,19.65
2023-02-23T01:48:15.181Z,19.48
2023-02-23T01:51:08.903Z,26.63
2023-02-23T01:54:01.084Z,20.05
2023-02-23T01:56:58.127Z,19.60
2023-02-23T01:59:49.087Z,21.02
2023-02-23T02:02:37.359Z,21.25
2023-02-23T02:05:28.031Z,18.55
2023-02-23T02:08:16.953Z,23.95
2023-02-23T02:11:25.518Z,21.48
2023-02-23T02:14:18.326Z,22.77
2023-02-23T02:17:22.072Z,19.00
2023-02-23T02:20:38.556Z,23.73
2023-02-23T02:23:54.240Z,18.73
2023-02-23T02:26:54.169Z,22.08
2023-02-23T02:30:10.437Z,18.08
2023-02-23T02:33:32.221Z,20.38
2023-02-23T02:36:59.050Z,18.83
2023-02-23T02:40:14.188Z,25.45
2023-02-23T02:43:11.509Z,20.42
2023-02-23T02:46:06.868Z,19.95
2023-02-23T02:49:00.547Z,21.63
2023-02-23T02:51:57.511Z,17.75
2023-02-23T02:54:53.466Z,21.48
2023-02-23T02:57:44.407Z,19.00
2023-02-23T03:00:55.009Z,19.92
2023-02-23T03:04:04.989Z,24.52
2023-02-23T03:07:18.129Z,20.52
2023-02-23T03:10:32.170Z,18.90
2023-02-23T03:13:44.444Z,15.95
2023-02-23T03:16:58.174Z,19.02
2023-02-23T03:20:13.454Z,20.52
2023-02-23T03:23:26.923Z,19.65
2023-02-23T03:26:41.931Z,16.48
2023-02-23T03:29:52.953Z,15.38
2023-02-23T03:33:06.941Z,22.10
2023-02-23T03:36:20.018Z,17.33
2023-02-23T03:39:36.531Z,22.63
2023-02-23T03:42:48.766Z,18.75
2023-02-23T03:45:55.313Z,18.50
2023-02-23T03:49:04.325Z,16.52
2023-02-23T03:52:16.191Z,17.45
2023-02-23T03:55:26.755Z,16.98
2023-02-23T03:58:39.516Z,20.60
2023-02-23T04:01:46.455Z,15.38
2023-02-23T04:04:53.033Z,14.07
2023-02-23T04:07:59.343Z,16.75
2023-02-23T04:11:09.845Z,18.08
2023-02-23T04:14:02.045Z,14.68
2023-02-23T04:16:49.465Z,20.42
2023-02-23T04:19:37.995Z,18.05
2023-02-23T04:22:26.695Z,17.30
2023-02-23T04:25:17.516Z,16.50
2023-02-23T04:28:06.104Z,16.83
2023-02-23T04:30:55.792Z,15.13
2023-02-23T04:33:44.013Z,17.05
2023-02-23T04:36:32.253Z,18.95
2023-02-23T04:39:20.487Z,24.38
2023-02-23T04:42:08.702Z,20.17
2023-02-23T04:44:56.958Z,20.08
2023-02-23T04:47:46.850Z,22.52
2023-02-23T04:50:35.573Z,20.00
2023-02-23T04:53:24.036Z,22.70
2023-02-23T04:56:12.432Z,18.33
2023-02-23T04:59:00.825Z,22.40
2023-02-23T05:01:49.076Z,20.25
2023-02-23T05:04:38.796Z,21.65
2023-02-23T05:07:27.128Z,22.17
2023-02-23T05:10:15.439Z,29.08
2023-02-23T05:13:03.699Z,26.17
2023-02-23T05:15:51.971Z,33.72
2023-02-23T05:18:40.248Z,35.33
2023-02-23T05:21:30.031Z,29.83
2023-02-23T05:24:18.340Z,31.63
2023-02-23T05:27:06.525Z,34.60
2023-02-23T05:29:54.762Z,30.00
2023-02-23T05:32:43.283Z,30.30
2023-02-23T05:35:31.533Z,40.03
2023-02-23T05:38:21.486Z,34.63
2023-02-23T05:41:11.606Z,24.98
2023-02-23T05:43:59.858Z,23.65
2023-02-23T05:46:48.445Z,25.30
2023-02-23T05:49:36.667Z,25.67
2023-02-23T05:52:25.053Z,28.10
2023-02-23T05:55:15.278Z,30.98
2023-02-23T05:58:03.526Z,29.30
2023-02-23T06:00:52.492Z,30.17
2023-02-23T06:03:40.775Z,31.30
2023-02-23T06:06:29.274Z,33.40
2023-02-23T06:09:17.517Z,31.90
2023-02-23T06:12:07.475Z,36.75
2023-02-23T06:14:55.773Z,41.80
2023-02-23T06:17:43.987Z,27.77
2023-02-23T06:20:32.368Z,30.42
2023-02-23T06:23:20.750Z,32.45
2023-02-23T06:26:09.160Z,29.17
2023-02-23T06:28:58.959Z,31.08
2023-02-23T06:31:47.247Z,29.08
2023-02-23T06:34:35.500Z,30.60
2023-02-23T06:37:23.763Z,27.90
2023-02-23T06:40:12.803Z,27.20
2023-02-23T06:43:03.600Z,23.30
2023-02-23T06:45:53.175Z,25.05
2023-02-23T06:48:41.681Z,27.27
2023-02-23T06:51:29.905Z,27.77
2023-02-23T06:54:18.856Z,25.42
2023-02-23T06:57:07.357Z,26.77
2023-02-23T06:59:55.669Z,23.75
2023-02-23T07:02:45.868Z,25.63
2023-02-23T07:05:34.137Z,20.50
2023-02-23T07:08:22.351Z,22.17
2023-02-23T07:11:13.301Z,21.45
2023-02-23T07:14:02.473Z,24.63
2023-02-23T07:16:50.698Z,27.85
2023-02-23T07:19:40.408Z,23.67
2023-02-23T07:22:30.412Z,25.58
2023-02-23T07:25:18.873Z,25.73
2023-02-23T07:28:07.141Z,23.75
2023-02-23T07:30:56.873Z,29.42
2023-02-23T07:33:45.220Z,29.38
2023-02-23T07:36:34.759Z,28.35
2023-02-23T07:39:22.998Z,26.60
2023-02-23T07:42:11.269Z,27.63
2023-02-23T07:44:59.523Z,28.88
2023-02-23T07:47:47.750Z,28.65
2023-02-23T07:50:36.554Z,30.70
2023-02-23T07:53:27.849Z,30.73
2023-02-23T07:56:16.113Z,41.80
2023-02-23T07:59:04.445Z,36.42
2023-02-23T08:01:52.756Z,38.72
2023-02-23T08:04:43.225Z,44.45
2023-02-23T08:07:33.788Z,41.58
2023-02-23T08:10:23.918Z,39.35
2023-02-23T08:13:12.142Z,40.23
2023-02-23T08:16:00.731Z,39.92
2023-02-23T08:18:48.998Z,43.40
2023-02-23T08:21:37.235Z,47.92
2023-02-23T08:24:26.725Z,55.67
2023-02-23T08:27:16.318Z,64.75
2023-02-23T08:30:06.439Z,78.47
2023-02-23T08:32:54.684Z,87.13
2023-02-23T08:35:42.924Z,91.72
2023-02-23T08:38:33.242Z,94.47
2023-02-23T08:41:22.071Z,90.78
2023-02-23T08:44:11.636Z,94.20
2023-02-23T08:47:01.314Z,94.82
2023-02-23T08:49:49.529Z,95.05
2023-02-23T08:52:37.929Z,90.10
2023-02-23T08:55:26.166Z,96.72
2023-02-23T08:58:14.391Z,90.30
2023-02-23T09:01:04.485Z,92.60
2023-02-23T09:03:52.888Z,94.03
2023-02-23T09:06:41.980Z,93.63
2023-02-23T09:09:30.210Z,88.75
2023-02-23T09:12:18.409Z,85.13
2023-02-23T09:15:07.515Z,84.18
2023-02-23T09:18:01.442Z,85.45
2023-02-23T09:20:49.671Z,89.65
2023-02-23T09:23:38.506Z,87.05
2023-02-23T09:26:28.570Z,88.50
2023-02-23T09:29:17.025Z,82.57
2023-02-23T09:32:05.673Z,84.68
2023-02-23T09:34:55.305Z,90.75
2023-02-23T09:37:43.516Z,88.38
2023-02-23T09:40:39.242Z,81.78
2023-02-23T09:43:33.636Z,88.10
2023-02-23T09:46:31.420Z,89.13
2023-02-23T09:49:22.497Z,89.63
2023-02-23T09:55:05.162Z,91.68
2023-02-23T09:57:54.967Z,100.38
2023-02-23T10:00:51.298Z,90.60
2023-02-23T10:03:48.247Z,97.20
2023-02-23T10:06:36.613Z,95.78
2023-02-23T10:09:36.985Z,98.20
2023-02-23T10:12:33.629Z,93.50
2023-02-23T10:15:29.887Z,93.80
2023-02-23T10:18:45.383Z,94.00
2023-02-23T10:21:37.182Z,103.20
2023-02-23T10:24:30.960Z,98.28
2023-02-23T10:27:21.873Z,95.80
2023-02-23T10:30:19.972Z,92.70
2023-02-23T10:33:16.979Z,95.47
2023-02-23T10:36:15.286Z,95.85
2023-02-23T10:39:06.122Z,103.22
2023-02-23T10:41:56.239Z,98.72
2023-02-23T10:44:45.453Z,100.80
2023-02-23T10:47:35.832Z,107.53
2023-02-23T10:50:27.549Z,103.32
2023-02-23T10:53:18.118Z,101.55
2023-02-23T10:56:10.728Z,97.85
2023-02-23T10:59:00.844Z,103.13
2023-02-23T11:02:01.358Z,99.10
2023-02-23T11:04:56.876Z,98.75
2023-02-23T11:07:45.233Z,96.55
2023-02-23T11:10:34.213Z,96.00
2023-02-23T11:13:28.572Z,97.78
2023-02-23T11:16:21.145Z,97.30
2023-02-23T11:19:24.274Z,100.80
2023-02-23T11:22:22.336Z,97.50
2023-02-23T11:25:18.388Z,99.80
2023-02-23T11:28:06.876Z,105.82
2023-02-23T11:30:55.191Z,110.03
2023-02-23T11:33:46.014Z,110.30
2023-02-23T11:36:36.457Z,117.70
2023-02-23T11:39:24.703Z,106.25
2023-02-23T11:42:19.340Z,113.45
2023-02-23T11:45:16.024Z,107.10
2023-02-23T11:48:06.004Z,103.63
2023-02-23T11:50:56.757Z,109.55
2023-02-23T11:53:47.712Z,109.03
2023-02-23T11:56:36.993Z,114.00
2023-02-23T11:59:31.091Z,103.90
2023-02-23T12:02:25.974Z,107.20
2023-02-23T12:05:23.156Z,95.93
2023-02-23T12:08:17.059Z,101.15
2023-02-23T12:11:12.256Z,99.72
2023-02-23T12:14:05.565Z,98.78
2023-02-23T12:16:58.350Z,100.75
2023-02-23T12:19:50.552Z,103.38
2023-02-23T12:22:43.790Z,98.65
2023-02-23T12:25:37.905Z,93.43
2023-02-23T12:28:32.716Z,97.85
2023-02-23T12:31:26.740Z,93.07
2023-02-23T12:34:22.746Z,98.32
2023-02-23T12:37:32.298Z,100.53
2023-02-23T12:40:23.362Z,96.30
